Nebraska City, Nebraska
Current Conditions -  °F | °C
As of 12:35 PM on Thursday 23 Oct 2014 (Local Time) from KAFK Reporting Station
Clear Clear  
Wind Chill: 67°   Ceiling: Unl
Heat Index: 67°   Visibility: 10mi
Dew Point: 55°   Wind: 3mph
Humidity: 66%   Direction: 290°WNW
Pressure: 30.07"   Gusts: NA
Location:  40.68°N, 95.86°W
Report Text: KAFK 231735Z AUTO 29003KT 10SM CLR 19/13 A3007 RMK AO2 T01930128
Loading
Personal Weather Stations






























Interactive Weather Map
Tropical Storm Tracking
New forecast layout! Learn more

10-Day Weather Forecast

Advertisements
Track Severe Weather on mobile